createdAt,value
2022-09-18T07:51:37.929Z,1.92
2022-09-18T07:54:05.393Z,1.75
2022-09-18T07:56:33.056Z,2.08
2022-09-18T07:59:00.368Z,1.73
2022-09-18T08:01:27.703Z,1.50
2022-09-18T08:03:55.628Z,1.85
2022-09-18T08:06:22.946Z,2.25
2022-09-18T08:08:54.836Z,2.08
2022-09-18T08:11:22.786Z,1.67
2022-09-18T08:13:50.329Z,2.10
2022-09-18T08:16:17.597Z,2.00
2022-09-18T08:18:44.947Z,2.40
2022-09-18T08:21:12.319Z,2.38
2022-09-18T08:23:39.601Z,3.72
2022-09-18T08:26:06.913Z,2.17
2022-09-18T08:28:34.103Z,1.80
2022-09-18T08:31:01.361Z,2.00
2022-09-18T08:33:28.649Z,2.55
2022-09-18T08:35:56.387Z,2.92
2022-09-18T08:38:23.803Z,2.70
2022-09-18T08:41:13.735Z,3.20
2022-09-18T08:46:23.061Z,3.25
2022-09-18T08:48:56.176Z,4.82
2022-09-18T08:51:37.847Z,3.50
2022-09-18T08:54:34.188Z,2.85
2022-09-18T08:57:15.455Z,3.28
2022-09-18T08:59:56.728Z,2.90
2022-09-18T09:02:38.750Z,2.90
2022-09-18T09:05:35.522Z,3.33
2022-09-18T09:08:48.965Z,2.78
2022-09-18T09:11:21.310Z,2.80
2022-09-18T09:14:10.841Z,3.08
2022-09-18T09:16:48.834Z,3.92
2022-09-18T09:19:35.063Z,3.13
2022-09-18T09:22:33.309Z,2.92
2022-09-18T09:25:11.675Z,3.20
2022-09-18T09:27:49.358Z,2.45
2022-09-18T09:30:19.718Z,2.10
2022-09-18T09:33:12.340Z,2.97
2022-09-18T09:35:45.184Z,2.70
2022-09-18T09:38:33.061Z,2.47
2022-09-18T09:41:32.019Z,3.95
2022-09-18T09:44:23.958Z,2.33
2022-09-18T09:47:03.612Z,1.70
2022-09-18T09:52:09.348Z,1.90
2022-09-18T09:54:37.006Z,2.17
2022-09-18T09:57:15.915Z,2.22
2022-09-18T10:00:18.089Z,1.60
2022-09-18T10:03:21.893Z,1.20
2022-09-18T10:05:53.912Z,2.35
2022-09-18T10:09:04.700Z,7.93
2022-09-18T10:11:35.754Z,1.60
2022-09-18T10:14:11.295Z,1.00
2022-09-18T10:16:44.151Z,0.80
2022-09-18T10:19:19.031Z,1.08
2022-09-18T10:21:47.745Z,0.82
2022-09-18T10:24:42.957Z,1.00
2022-09-18T10:27:12.863Z,0.88
2022-09-18T10:29:40.886Z,0.73
2022-09-18T10:32:11.902Z,0.60
2022-09-18T10:34:42.609Z,1.10
2022-09-18T10:37:40.385Z,0.55
2022-09-18T10:40:31.895Z,0.65
2022-09-18T10:43:00.345Z,1.40
2022-09-18T10:45:30.603Z,0.60
2022-09-18T10:48:25.108Z,0.43
2022-09-18T10:50:57.545Z,0.70
2022-09-18T10:53:24.825Z,0.60
2022-09-18T10:55:55.808Z,1.00
2022-09-18T10:58:30.984Z,1.00
2022-09-18T11:01:02.827Z,1.10
2022-09-18T11:03:59.340Z,1.33
2022-09-18T11:06:28.874Z,1.92
2022-09-18T11:08:59.459Z,2.70
2022-09-18T11:11:33.039Z,1.83
2022-09-18T11:14:04.014Z,1.17
2022-09-18T11:16:38.155Z,0.77
2022-09-18T11:19:08.603Z,0.60
2022-09-18T11:21:46.571Z,0.90
2022-09-18T11:24:37.992Z,0.50
2022-09-18T11:27:21.579Z,0.40
2022-09-18T11:29:49.088Z,0.43
2022-09-18T11:32:26.971Z,0.75
2022-09-18T11:34:57.553Z,0.35
2022-09-18T11:37:49.099Z,0.60
2022-09-18T11:40:33.030Z,0.70
2022-09-18T11:43:05.714Z,0.63
2022-09-18T11:45:52.267Z,14.43
2022-09-18T11:48:36.620Z,6.97
2022-09-18T11:51:13.893Z,2.20
2022-09-18T11:53:52.231Z,5.13
2022-09-18T11:56:31.978Z,2.40
2022-09-18T12:01:32.066Z,2.70
2022-09-18T12:04:08.291Z,1.67
2022-09-18T12:07:02.056Z,1.40
2022-09-18T12:09:32.003Z,1.30
2022-09-18T12:12:17.937Z,1.20
2022-09-18T12:15:00.535Z,1.10
2022-09-18T12:17:36.346Z,1.35
2022-09-18T12:20:14.199Z,1.10
2022-09-18T12:22:55.755Z,1.50
2022-09-18T12:26:05.444Z,1.10
2022-09-18T12:28:42.605Z,1.20
2022-09-18T12:31:14.945Z,1.38
2022-09-18T12:34:08.729Z,1.42
2022-09-18T12:36:44.962Z,1.30
2022-09-18T12:39:42.042Z,1.48
2022-09-18T12:42:31.775Z,1.48
2022-09-18T12:47:45.295Z,1.27
2022-09-18T12:50:12.724Z,1.27
2022-09-18T12:53:12.064Z,1.73
2022-09-18T12:56:08.619Z,1.17
2022-09-18T12:58:53.960Z,0.90
2022-09-18T13:01:46.158Z,1.17
2022-09-18T13:04:23.464Z,0.95
2022-09-18T13:06:58.564Z,0.90
2022-09-18T13:09:39.265Z,1.30
2022-09-18T13:12:16.074Z,1.10
2022-09-18T13:14:54.180Z,3.65
2022-09-18T13:17:29.273Z,5.50
2022-09-18T13:20:14.402Z,1.88
2022-09-18T13:22:45.332Z,1.90
2022-09-18T13:25:32.098Z,2.50
2022-09-18T13:28:02.040Z,0.73
2022-09-18T13:30:31.393Z,0.95
2022-09-18T13:33:00.717Z,1.00
2022-09-18T13:35:32.991Z,2.65
2022-09-18T13:38:08.891Z,0.85
2022-09-18T13:40:39.842Z,1.00
2022-09-18T13:43:22.135Z,0.98
2022-09-18T13:45:49.643Z,0.77
2022-09-18T13:48:30.352Z,1.05
2022-09-18T13:51:06.633Z,0.75
2022-09-18T13:53:36.690Z,0.85
2022-09-18T13:56:05.264Z,0.50
2022-09-18T13:58:33.690Z,0.38
2022-09-18T14:01:02.089Z,1.00
2022-09-18T14:03:29.419Z,0.43
2022-09-18T14:05:56.688Z,1.15
2022-09-18T14:08:24.397Z,0.63
2022-09-18T14:11:16.293Z,0.60
2022-09-18T14:13:51.564Z,7.03
2022-09-18T14:16:22.562Z,7.75
2022-09-18T14:18:49.781Z,4.63
2022-09-18T14:21:20.159Z,2.05
2022-09-18T14:23:47.467Z,0.90
2022-09-18T14:26:33.918Z,0.90
2022-09-18T14:29:16.656Z,36.38
2022-09-18T14:31:58.674Z,2.45
2022-09-18T14:34:39.520Z,1.15
2022-09-18T14:37:25.701Z,1.00
2022-09-18T14:39:55.662Z,1.55
2022-09-18T14:42:32.658Z,1.60
2022-09-18T14:45:13.189Z,1.30
2022-09-18T14:47:42.569Z,1.35
2022-09-18T14:50:38.016Z,3.33
2022-09-18T14:53:24.858Z,2.75
2022-09-18T14:56:01.117Z,3.05
2022-09-18T14:58:36.260Z,2.40
2022-09-18T15:01:06.376Z,2.08
2022-09-18T15:03:39.052Z,1.42
2022-09-18T15:06:17.721Z,1.92
2022-09-18T15:08:50.041Z,1.65
2022-09-18T15:11:20.747Z,2.47
2022-09-18T15:13:52.110Z,3.85
2022-09-18T15:16:29.124Z,2.20
2022-09-18T15:18:57.559Z,2.00
2022-09-18T15:21:33.156Z,2.05
2022-09-18T15:24:02.934Z,2.30
2022-09-18T15:26:56.007Z,30.13
2022-09-18T15:29:45.260Z,9.35
2022-09-18T15:32:24.615Z,5.67
2022-09-18T15:34:53.686Z,6.05
2022-09-18T15:37:24.507Z,4.07
2022-09-18T15:40:18.602Z,3.25
2022-09-18T15:43:07.451Z,3.58
2022-09-18T15:45:37.034Z,3.35
2022-09-18T15:48:34.121Z,4.13
2022-09-18T15:51:16.564Z,3.75
2022-09-18T15:54:04.941Z,3.33
2022-09-18T15:56:34.401Z,3.88
2022-09-18T15:59:07.904Z,4.20
2022-09-18T16:01:40.073Z,3.53
2022-09-18T16:04:17.892Z,4.30
2022-09-18T16:07:07.087Z,3.53
2022-09-18T16:09:44.303Z,3.72
2022-09-18T16:12:33.173Z,2.78
2022-09-18T16:15:21.312Z,2.25
2022-09-18T16:17:58.287Z,3.47
2022-09-18T16:20:28.677Z,2.97
2022-09-18T16:23:19.847Z,2.60
2022-09-18T16:26:02.004Z,2.63
2022-09-18T16:28:32.150Z,3.53
2022-09-18T16:31:00.011Z,2.95
2022-09-18T16:33:30.745Z,2.85
2022-09-18T16:36:22.540Z,3.35
2022-09-18T16:38:49.913Z,2.97
2022-09-18T16:41:17.100Z,2.80
2022-09-18T16:43:45.043Z,3.30
2022-09-18T16:46:14.270Z,4.28
2022-09-18T16:48:41.685Z,2.97
2022-09-18T16:51:09.057Z,3.75
2022-09-18T16:53:38.472Z,16.80
2022-09-18T16:56:11.030Z,33.03
2022-09-18T16:58:39.335Z,89.90
2022-09-18T17:01:06.913Z,116.15
2022-09-18T17:03:34.756Z,79.20
2022-09-18T17:06:02.590Z,72.60
2022-09-18T17:08:30.741Z,116.88
2022-09-18T17:10:58.202Z,159.20
2022-09-18T17:13:25.991Z,212.85
2022-09-18T17:15:54.016Z,274.25
2022-09-18T17:18:21.292Z,378.02
2022-09-18T17:20:48.611Z,178.55
2022-09-18T17:23:17.651Z,35.97
2022-09-18T17:25:45.138Z,27.73
2022-09-18T17:28:12.683Z,22.67
2022-09-18T17:30:44.410Z,14.18
2022-09-18T17:33:11.929Z,19.48
2022-09-18T17:35:40.417Z,16.92
2022-09-18T17:38:08.024Z,13.80
2022-09-18T17:40:35.355Z,13.43
2022-09-18T17:43:03.179Z,14.98
2022-09-18T17:45:33.228Z,16.98
2022-09-18T17:50:27.832Z,15.50
2022-09-18T17:52:55.678Z,16.45
2022-09-18T17:55:22.998Z,16.17
2022-09-18T17:57:53.033Z,15.07
2022-09-18T18:00:20.970Z,12.23
2022-09-18T18:02:48.329Z,11.48
2022-09-18T18:05:16.611Z,11.70
2022-09-18T18:07:44.006Z,11.48
2022-09-18T18:10:11.542Z,10.40
2022-09-18T18:12:38.890Z,10.10
2022-09-18T18:15:06.614Z,9.32
2022-09-18T18:17:34.972Z,7.25
2022-09-18T18:20:05.484Z,6.80
2022-09-18T18:22:32.869Z,6.60
2022-09-18T18:25:00.262Z,7.88
2022-09-18T18:27:28.451Z,20.17
2022-09-18T18:29:55.922Z,39.67
2022-09-18T18:32:23.270Z,20.95
2022-09-18T18:34:50.602Z,12.48
2022-09-18T18:37:19.764Z,10.65
2022-09-18T18:39:48.287Z,8.43
2022-09-18T18:42:15.567Z,11.85
2022-09-18T18:44:43.674Z,13.00
2022-09-18T18:47:11.064Z,11.60
2022-09-18T18:49:38.424Z,11.85
2022-09-18T18:52:07.659Z,12.00
2022-09-18T18:54:34.964Z,11.13
2022-09-18T18:57:02.391Z,9.85
2022-09-18T18:59:29.670Z,9.48
2022-09-18T19:01:58.005Z,8.63
2022-09-18T19:04:26.237Z,9.90
2022-09-18T19:06:54.253Z,6.93
2022-09-18T19:09:24.735Z,7.13
2022-09-18T19:11:53.396Z,7.63
2022-09-18T19:14:26.473Z,7.10
2022-09-18T19:16:55.116Z,6.47
2022-09-18T19:19:24.743Z,7.88
2022-09-18T19:21:53.176Z,4.32
2022-09-18T19:24:21.232Z,5.03
2022-09-18T19:26:49.372Z,4.70
2022-09-18T19:29:19.878Z,3.95
2022-09-18T19:31:48.379Z,4.47
2022-09-18T19:34:18.937Z,11.82
2022-09-18T19:36:47.497Z,11.70
2022-09-18T19:39:15.070Z,15.35
2022-09-18T19:42:10.440Z,10.60
2022-09-18T19:44:47.387Z,3.25
2022-09-18T19:47:24.435Z,4.28
2022-09-18T19:49:53.006Z,2.92
2022-09-18T19:52:25.596Z,2.40
2022-09-18T19:54:55.117Z,3.83
2022-09-18T19:57:26.055Z,2.50
2022-09-18T19:59:54.807Z,2.78
2022-09-18T20:02:23.311Z,2.92
2022-09-18T20:04:50.705Z,2.40
2022-09-18T20:07:18.066Z,2.50
2022-09-18T20:09:45.359Z,2.38
2022-09-18T20:12:13.319Z,2.10
2022-09-18T20:14:40.588Z,2.30
2022-09-18T20:17:08.606Z,2.88
2022-09-18T20:19:37.099Z,2.97
2022-09-18T20:22:05.442Z,3.95
2022-09-18T20:24:33.197Z,4.43
2022-09-18T20:27:01.372Z,4.53
2022-09-18T20:29:29.157Z,5.75
2022-09-18T20:31:58.380Z,5.15
2022-09-18T20:34:25.978Z,4.80
2022-09-18T20:36:54.609Z,4.22
2022-09-18T20:39:21.931Z,4.97
2022-09-18T20:41:51.325Z,4.03
2022-09-18T20:44:19.266Z,4.20
2022-09-18T20:46:46.653Z,3.75
2022-09-18T20:49:17.625Z,4.00
2022-09-18T20:51:44.958Z,4.05
2022-09-18T20:54:14.614Z,3.40
2022-09-18T20:56:44.654Z,3.42
2022-09-18T20:59:13.871Z,2.85
2022-09-18T21:01:42.339Z,3.15
2022-09-18T21:04:19.698Z,3.22
2022-09-18T21:06:57.312Z,3.47
2022-09-18T21:09:26.812Z,3.05
2022-09-18T21:11:56.530Z,3.40
2022-09-18T21:14:24.847Z,4.22
2022-09-18T21:16:53.350Z,6.20
2022-09-18T21:19:20.662Z,5.35
2022-09-18T21:21:49.136Z,4.32
2022-09-18T21:24:17.664Z,4.47
2022-09-18T21:26:48.059Z,3.58
2022-09-18T21:29:25.445Z,3.28
2022-09-18T21:31:55.519Z,3.00
2022-09-18T21:34:31.771Z,2.65
2022-09-18T21:37:08.382Z,3.45
2022-09-18T21:39:35.983Z,2.83
2022-09-18T21:42:07.505Z,2.80
2022-09-18T21:44:35.662Z,3.45
2022-09-18T21:47:05.466Z,2.88
2022-09-18T21:49:33.394Z,2.95
2022-09-18T21:52:04.096Z,3.72
2022-09-18T21:54:32.139Z,3.35
2022-09-18T21:56:59.947Z,2.90
2022-09-18T21:59:30.584Z,2.90
2022-09-18T22:01:59.527Z,4.10
2022-09-18T22:04:29.521Z,3.38
2022-09-18T22:09:28.940Z,2.65
2022-09-18T22:11:57.610Z,2.75
2022-09-18T22:14:32.581Z,3.10
2022-09-18T22:17:05.790Z,2.60
2022-09-18T22:19:36.985Z,3.35
2022-09-18T22:22:06.908Z,3.10
2022-09-18T22:24:34.520Z,3.35
2022-09-18T22:27:08.975Z,2.92
2022-09-18T22:29:37.836Z,3.05
2022-09-18T22:32:05.696Z,3.17
2022-09-18T22:34:35.151Z,3.58
2022-09-18T22:37:02.949Z,3.22
2022-09-18T22:39:30.379Z,3.20
2022-09-18T22:41:58.198Z,2.95
2022-09-18T22:44:25.742Z,2.97
2022-09-18T22:46:53.667Z,2.60
2022-09-18T22:49:22.999Z,2.83
2022-09-18T22:51:51.658Z,3.03
2022-09-18T22:54:26.259Z,3.00
2022-09-18T22:56:54.496Z,2.83
2022-09-18T22:59:23.543Z,3.08
2022-09-18T23:01:53.173Z,2.73
2022-09-18T23:04:23.766Z,2.50
2022-09-18T23:06:51.751Z,2.70
2022-09-18T23:09:20.325Z,2.58
2022-09-18T23:11:53.192Z,2.80
2022-09-18T23:14:27.144Z,2.67
2022-09-18T23:16:55.193Z,2.28
2022-09-18T23:19:33.783Z,2.90
2022-09-18T23:22:01.765Z,2.53
2022-09-18T23:24:29.231Z,2.47
2022-09-18T23:26:58.327Z,2.50
2022-09-18T23:29:26.903Z,2.43
2022-09-18T23:31:58.360Z,2.40
2022-09-18T23:34:29.952Z,2.53
2022-09-18T23:36:58.820Z,2.35
2022-09-18T23:39:28.848Z,2.60
2022-09-18T23:44:25.537Z,2.40
2022-09-18T23:46:52.859Z,3.47
2022-09-18T23:49:24.045Z,2.50
2022-09-18T23:51:53.329Z,2.83
2022-09-18T23:54:23.195Z,2.10
2022-09-18T23:59:22.798Z,2.83
